Latest Weather Observations for Falls Creek

IDV60801

Issued at 2:32 pm EDT Sunday 26 February 2017 (issued every 30 minutes, with the page automatically refreshed every 10 minutes)

About weather observations | Map of weather stations | Latest weather observations for VIC | Other Formats
Station Details ID: 083084 Name: FALLS CREEK Lat: -36.87 Lon: 147.28 Height: 1765.0 m
Data from the previous 72 hours. | See also: Recent months at Falls Creek
Date/Time
EDT
Temp
°C
App
Temp
°C
Dew
Point
°C
Rel
Hum
%
Delta-T
°C
Wind Press
QNH
hPa
Press
MSL
hPa
Rain since
9am
mm
Dir  Spd
km/h
Gust
km/h
Spd
kts
Gust
kts
26/02:30pm 14.4 12.5 9.2 71 2.9 E 9 13 5 7 1027.0 1019.0 0.0
26/02:00pm 12.9 11.8 9.9 82 1.7 NNE 6 11 3 6 1027.1 1019.2 0.0
26/01:30pm 13.5 12.2 10.1 80 1.9 WNW 7 15 4 8 1027.1 1019.2 0.0
26/01:00pm 13.3 11.7 10.1 81 1.8 NW 9 15 5 8 1027.1 1019.2 0.0
26/12:30pm 12.7 11.4 9.2 79 1.9 NNE 6 11 3 6 1027.1 1019.2 0.0
26/12:00pm 13.3 11.8 9.2 76 2.3 NNW 7 11 4 6 1027.2 1019.3 0.0
26/11:30am 13.2 11.7 9.1 76 2.3 NNW 7 15 4 8 1027.1 1019.2 0.0
26/11:00am 12.1 10.0 8.2 77 2.1 W 9 17 5 9 1027.1 1019.2 0.0
26/10:30am 12.2 10.8 9.0 81 1.8 W 6 13 3 7 1027.1 1019.2 0.0
26/10:00am 11.3 9.6 8.2 81 1.7 W 7 11 4 6 1027.0 1019.0 0.0
26/09:30am 10.6 7.7 8.2 85 1.3 WSW 13 19 7 10 1026.7 1018.7 0.0
26/09:00am 10.5 8.9 8.9 90 0.9 SSW 7 9 4 5 1026.3 1018.3 0.0
26/08:30am 9.4 7.9 9.3 99 0.1 SW 7 11 4 6 1026.2 1018.2 0.0
26/08:00am 8.8 6.8 8.7 99 0.1 SW 9 11 5 6 1025.9 1017.9 0.0
26/07:30am 6.0 3.4 5.9 99 0.0 SSW 9 9 5 5 1025.8 1017.8 0.0
26/07:00am 5.8 3.5 5.7 99 0.0 S 7 9 4 5 1025.1 1017.1 0.0
26/06:30am 6.2 3.6 6.1 99 0.0 S 9 11 5 6 1024.5 1016.5 0.0
26/06:00am 6.1 3.5 6.0 99 0.0 S 9 11 5 6 1024.2 1016.1 0.0
26/05:30am 6.1 3.1 6.0 99 0.0 S 11 13 6 7 1024.3 1016.2 0.0
26/05:00am 6.5 3.2 6.4 99 0.1 S 13 17 7 9 1024.2 1016.1 0.0
26/04:30am 6.5 2.8 6.4 99 0.1 SSE 15 17 8 9 1024.4 1016.3 0.0
26/04:00am 6.6 2.9 6.5 99 0.1 SSE 15 19 8 10 1024.2 1016.1 0.0
26/03:30am 6.8 3.6 6.7 99 0.1 SSE 13 19 7 10 1024.3 1016.2 0.0
26/03:00am 6.7 3.1 6.6 99 0.1 SSE 15 20 8 11 1024.5 1016.5 0.0
26/02:30am 7.0 3.1 6.9 99 0.1 SE 17 24 9 13 1024.6 1016.6 0.0
26/02:00am 7.1 3.6 7.0 99 0.1 SSE 15 22 8 12 1024.9 1016.8 0.0
26/01:30am 7.2 2.7 7.1 99 0.1 SE 20 26 11 14 1024.9 1016.8 0.0
26/01:00am 7.1 2.6 7.0 99 0.1 SE 20 28 11 15 1025.1 1017.1 0.0
26/12:30am 7.4 2.2 7.3 99 0.1 SE 24 30 13 16 1025.2 1017.2 0.0
26/12:00am 7.5 2.7 7.4 99 0.1 SE 22 30 12 16 1025.5 1017.4 0.0
 
Date/Time
EDT
Temp
°C
App
Temp
°C
Dew
Point
°C
Rel
Hum
%
Delta-T
°C
Wind Press
QNH
hPa
Press
MSL
hPa
Rain since
9am
mm
Dir  Spd
km/h
Gust
km/h
Spd
kts
Gust
kts
25/11:30pm 7.4 2.6 7.3 99 0.1 SE 22 32 12 17 1025.3 1017.3 0.0
25/11:00pm 7.6 2.1 7.5 99 0.1 SE 26 33 14 18 1025.3 1017.3 0.0
25/10:30pm 7.8 3.1 7.7 99 0.1 SE 22 32 12 17 1025.3 1017.3 0.0
25/10:00pm 7.9 3.8 7.8 99 0.1 SE 19 24 10 13 1025.2 1017.2 0.0
25/09:30pm 7.9 4.2 7.8 99 0.1 SSE 17 24 9 13 1025.1 1017.1 0.0
25/09:00pm 7.9 4.2 7.8 99 0.1 SSE 17 22 9 12 1025.0 1016.9 0.0
25/08:30pm 8.0 4.7 7.9 99 0.1 SSE 15 22 8 12 1024.7 1016.7 0.0
25/08:00pm 8.3 5.0 7.9 97 0.2 SSE 15 20 8 11 1024.6 1016.6 0.0
25/07:30pm 9.0 5.3 7.9 93 0.6 SSE 17 20 9 11 1024.4 1016.3 0.0
25/07:00pm 9.7 6.4 8.0 89 0.9 SSE 15 20 8 11 1024.3 1016.2 0.0
25/06:30pm 10.6 7.8 8.5 87 1.1 SSE 13 17 7 9 1024.2 1016.1 0.0
25/06:00pm 11.2 8.5 8.8 85 1.3 SSE 13 20 7 11 1024.2 1016.1 0.0
25/05:30pm 11.1 8.0 8.8 86 1.3 SE 15 20 8 11 1023.9 1015.8 0.0
25/05:00pm 10.6 7.0 8.4 86 1.2 SE 17 22 9 12 1024.2 1016.1 0.0
25/04:30pm 10.7 7.5 8.5 86 1.2 SE 15 20 8 11 1024.3 1016.2 0.0
25/04:00pm 12.5 8.7 9.1 80 1.9 SE 19 26 10 14 1024.3 1016.2 0.0
25/03:30pm 12.9 9.9 9.4 79 2.0 SE 15 20 8 11 1024.4 1016.3 0.0
25/03:00pm 12.3 9.6 9.0 80 1.8 SE 13 19 7 10 1024.6 1016.6 0.0
25/02:30pm 13.3 10.2 9.0 75 2.4 ESE 15 19 8 10 1024.7 1016.7 0.0
25/02:00pm 11.5 9.1 8.5 82 1.6 SE 11 15 6 8 1024.9 1016.8 0.0
25/01:30pm 11.8 9.9 9.0 83 1.5 E 9 15 5 8 1025.0 1016.9 0.0
25/01:00pm 13.0 11.6 8.7 75 2.4 NNE 6 13 3 7 1025.0 1016.9 0.0
25/12:30pm 13.5 11.4 9.6 77 2.2 NNW 11 19 6 10 1025.1 1017.1 0.0
25/12:00pm 12.7 11.1 10.1 84 1.5 NW 9 19 5 10 1025.3 1017.3 0.0
25/11:30am 12.1 9.5 9.3 83 1.6 NNW 13 22 7 12 1025.3 1017.3 0.0
25/11:00am 11.9 9.9 10.3 90 0.9 NNW 11 17 6 9 1025.3 1017.3 0.0
25/10:30am 11.2 8.8 10.0 92 0.7 NNW 13 19 7 10 1025.3 1017.3 0.0
25/10:00am 10.8 9.0 9.6 92 0.7 NNW 9 15 5 8 1025.3 1017.3 0.0
25/09:30am 10.8 9.2 10.3 97 0.3 NNW 9 15 5 8 1025.1 1017.1 0.0
25/09:00am 10.1 8.1 10.0 99 0.1 N 11 13 6 7 1024.9 1016.8 0.0
25/08:30am 9.4 7.2 9.3 99 0.1 NNW 11 15 6 8 1024.5 1016.5 0.0
25/08:00am 6.1 4.0 6.0 99 0.0 WNW 6 13 3 7 1024.5 1016.5 0.0
25/07:30am 3.3 0.5 3.2 99 0.0 S 7 9 4 5 1024.4 1016.3 0.0
25/07:00am 2.7 -0.6 2.6 99 0.0 S 9 15 5 8 1024.2 1016.1 0.0
25/06:30am 2.3 -0.5 2.2 99 0.0 WSW 6 9 3 5 1024.0 1016.0 0.0
25/06:00am 2.8 -1.2 2.7 99 0.0 S 13 17 7 9 1023.9 1015.8 0.0
25/05:30am 2.9 -1.5 2.8 99 0.0 SSE 15 17 8 9 1023.8 1015.7 0.0
25/05:00am 2.9 -1.1 2.8 99 0.0 SE 13 17 7 9 1023.6 1015.5 0.0
25/04:30am 5.5 1.0 -0.3 66 2.5 ESE 13 15 7 8 1023.6 1015.5 0.0
25/04:00am 5.6 1.4 1.5 75 1.8 ESE 13 20 7 11 1023.8 1015.7 0.0
25/03:30am 8.1 2.2 -2.0 49 4.3 ESE 19 24 10 13 1023.9 1015.8 0.0
25/03:00am 8.0 2.5 -2.3 48 4.3 ESE 17 20 9 11 1024.2 1016.1 0.0
25/02:30am 4.9 -0.4 1.6 79 1.5 SE 19 22 10 12 1024.4 1016.3 0.0
25/02:00am 3.2 -1.1 3.1 99 0.0 SSE 15 20 8 11 1024.6 1016.6 0.0
25/01:30am 3.7 -0.5 3.6 99 0.0 SSE 15 19 8 10 1024.9 1016.8 0.0
25/01:00am 4.8 -0.3 3.3 90 0.7 SSE 19 22 10 12 1025.1 1017.1 0.0
25/12:30am 4.2 -0.7 4.1 99 0.0 SSE 19 22 10 12 1025.3 1017.3 0.0
25/12:00am 5.3 0.1 3.5 88 0.8 SSE 20 24 11 13 1025.6 1017.6 0.0
 
Date/Time
EDT
Temp
°C
App
Temp
°C
Dew
Point
°C
Rel
Hum
%
Delta-T
°C
Wind Press
QNH
hPa
Press
MSL
hPa
Rain since
9am
mm
Dir  Spd
km/h
Gust
km/h
Spd
kts
Gust
kts
24/11:30pm 5.6 0.0 3.3 85 1.1 SSE 22 26 12 14 1025.7 1017.7 0.0
24/11:00pm 5.6 0.1 4.2 91 0.7 SSE 22 28 12 15 1025.9 1017.9 0.0
24/10:30pm 6.1 0.4 4.7 91 0.7 S 24 28 13 15 1026.1 1018.0 0.0
24/10:00pm 5.9 0.4 5.8 99 0.0 SSE 24 26 13 14 1026.3 1018.3 0.0
24/09:30pm 6.4 1.4 6.3 99 0.1 SSE 22 26 12 14 1026.4 1018.4 0.0
24/09:00pm 6.9 2.0 6.8 99 0.1 SSE 22 28 12 15 1026.2 1018.2 0.0
24/08:30pm 8.4 4.2 8.3 99 0.1 SSE 20 24 11 13 1026.1 1018.0 0.0
24/08:00pm 8.9 4.5 8.8 99 0.1 S 22 26 12 14 1025.8 1017.8 0.0
24/07:30pm 9.6 5.7 9.5 99 0.1 SSE 20 22 11 12 1025.7 1017.7 0.0
24/07:00pm 10.5 7.0 10.3 99 0.1 SSE 19 22 10 12 1025.6 1017.6 0.0
24/06:30pm 11.8 8.8 10.7 93 0.6 SSE 17 22 9 12 1025.6 1017.6 0.0
24/06:00pm 14.1 11.7 11.4 84 1.6 SE 15 20 8 11 1025.5 1017.4 0.0
24/05:30pm 15.4 12.6 11.4 77 2.3 SSE 17 22 9 12 1025.5 1017.4 0.0
24/05:00pm 16.9 14.6 11.6 71 3.1 SE 15 20 8 11 1025.2 1017.2 0.0
24/04:30pm 18.5 16.8 11.1 62 4.4 SE 11 28 6 15 1025.3 1017.3 0.0
24/04:00pm 19.0 16.3 5.5 41 7.2 NW 9 20 5 11 1025.5 1017.4 0.0
24/03:30pm 18.6 15.2 4.0 38 7.6 NW 11 22 6 12 1025.7 1017.7 0.0
24/03:00pm 17.9 14.0 5.2 43 6.7 N 15 26 8 14 1025.8 1017.8 0.0
24/02:30pm 18.0 14.4 5.2 43 6.8 NW 13 28 7 15 1026.2 1018.2 0.0
24/02:00pm 18.0 15.7 7.4 50 5.8 NW 9 17 5 9 1026.3 1018.3 0.0
24/01:30pm 18.0 14.6 5.9 45 6.5 NW 13 22 7 12 1026.3 1018.3 0.0
24/01:00pm 17.6 13.8 5.9 46 6.2 WNW 15 22 8 12 1026.4 1018.4 0.0
24/12:30pm 17.2 15.0 7.8 54 5.2 WNW 9 19 5 10 1026.5 1018.5 0.0
24/12:00pm 16.8 14.1 7.4 54 5.1 W 11 20 6 11 1026.9 1018.9 0.0
24/11:30am 16.4 12.6 4.1 44 6.3 WNW 13 19 7 10 1026.8 1018.8 0.0
24/11:00am 15.5 12.5 4.3 47 5.7 W 9 17 5 9 1026.7 1018.7 0.0
24/10:30am 15.5 11.9 0.9 37 7.0 WNW 9 15 5 8 1026.7 1018.7 0.0
24/10:00am 15.1 12.4 3.6 46 5.8 WNW 7 13 4 7 1026.7 1018.7 0.0
24/09:30am 14.2 11.5 3.9 50 5.2 NNE 7 11 4 6 1026.2 1018.2 0.0
24/09:00am 14.0 11.3 3.5 49 5.2 N 7 11 4 6 1026.1 1018.0 0.0
24/08:30am 13.1 10.4 2.9 50 5.0 N 6 9 3 5 1025.9 1017.9 0.0
24/08:00am 12.1 8.8 2.6 52 4.6 NW 9 13 5 7 1025.7 1017.7 0.0
24/07:30am 11.6 7.5 2.4 53 4.4 NW 13 15 7 8 1025.5 1017.4 0.0
24/07:00am 11.3 6.4 2.3 54 4.3 NW 17 20 9 11 1025.3 1017.3 0.0
24/06:30am 11.3 6.8 2.1 53 4.4 NW 15 17 8 9 1024.9 1016.8 0.0
24/06:00am 11.3 6.8 2.1 53 4.4 NW 15 19 8 10 1024.6 1016.6 0.0
24/05:30am 11.6 7.0 1.8 51 4.6 NW 15 17 8 9 1024.6 1016.6 0.0
24/05:00am 11.3 7.3 2.6 55 4.2 WNW 13 15 7 8 1024.7 1016.7 0.0
24/04:30am 11.7 7.6 2.5 53 4.4 NW 13 15 7 8 1024.7 1016.7 0.0
24/04:00am 12.3 7.5 2.5 51 4.7 NW 17 19 9 10 1024.9 1016.8 0.0
24/03:30am 13.0 8.1 2.3 48 5.2 NW 17 22 9 12 1024.9 1016.8 0.0
24/03:00am 13.3 8.2 2.8 49 5.1 NNW 19 22 10 12 1024.9 1016.8 0.0
24/02:30am 13.6 8.5 2.8 48 5.3 NNW 19 24 10 13 1025.1 1017.1 0.0
24/02:00am 13.4 8.8 3.5 51 4.9 NNW 17 26 9 14 1025.3 1017.3 0.0
24/01:30am 13.2 9.3 3.6 52 4.8 NNW 13 19 7 10 1025.6 1017.6 0.0
24/01:00am 13.1 9.7 4.0 54 4.5 NNW 11 15 6 8 1025.8 1017.8 0.0
24/12:30am 13.4 9.3 4.3 54 4.6 NNW 15 17 8 9 1025.9 1017.9 0.0
24/12:00am 13.4 9.2 4.0 53 4.7 NNW 15 19 8 10 1026.2 1018.2 0.0
 
Date/Time
EDT
Temp
°C
App
Temp
°C
Dew
Point
°C
Rel
Hum
%
Delta-T
°C
Wind Press
QNH
hPa
Press
MSL
hPa
Rain since
9am
mm
Dir  Spd
km/h
Gust
km/h
Spd
kts
Gust
kts
23/11:30pm 13.8 9.3 4.1 52 4.9 NW 17 20 9 11 1026.2 1018.2 0.0
23/11:00pm 14.0 9.5 4.0 51 5.0 NNW 17 20 9 11 1026.3 1018.3 0.0
23/10:30pm 14.3 9.8 4.0 50 5.2 NNW 17 20 9 11 1026.5 1018.5 0.0
23/10:00pm 14.4 10.3 4.1 50 5.2 NNW 15 17 8 9 1026.7 1018.7 0.0
23/09:30pm 14.8 10.2 3.9 48 5.5 NNW 17 24 9 13 1026.4 1018.4 0.0
23/09:00pm 15.2 10.3 4.0 47 5.7 NW 19 24 10 13 1026.3 1018.3 0.0
23/08:30pm 15.7 10.9 2.8 42 6.4 NW 17 24 9 13 1026.1 1018.0 0.0
23/08:00pm 16.2 11.0 2.6 40 6.7 NW 19 26 10 14 1025.8 1017.8 0.0
23/07:30pm 16.9 11.1 2.5 38 7.2 NNW 22 32 12 17 1025.6 1017.6 0.0
23/07:00pm 17.6 12.3 2.8 37 7.4 NNW 20 30 11 16 1025.6 1017.6 0.0
23/06:30pm 18.3 13.0 3.0 36 7.8 NW 20 35 11 19 1025.5 1017.4 0.0
23/06:00pm 18.6 12.1 2.4 34 8.1 NNW 26 41 14 22 1025.2 1017.2 0.0
23/05:30pm 19.0 12.1 2.4 33 8.4 NNW 28 39 15 21 1025.1 1017.1 0.0
23/05:02pm 19.4 11.9 1.4 30 9.0 NNW 30 48 16 26 1024.9 1016.8 0.0
23/05:00pm 19.5 11.7 1.9 31 8.8 NNW 32 48 17 26 1025.0 1016.9 0.0
23/04:30pm 19.9 12.4 1.4 29 9.2 NW 30 50 16 27 1024.9 1016.8 0.0
23/04:00pm 19.7 12.1 3.0 33 8.6 NNW 32 57 17 31 1024.9 1016.8 0.0
23/03:58pm 19.6 11.9 2.5 32 8.7 NNW 32 54 17 29 1024.9 1016.8 0.0
23/03:30pm 20.3 14.6 5.1 37 8.2 NNW 24 39 13 21 1025.1 1017.1 0.0
23/03:00pm 20.3 13.9 5.1 37 8.1 NW 28 43 15 23 1025.1 1017.1 0.0

Other Formats:

Comma delimited format used in spreadsheet applications
http://www.bom.gov.au/fwo/IDV60801/IDV60801.94903.axf

JavaScript Object Notation format (JSON) in row-major order
http://www.bom.gov.au/fwo/IDV60801/IDV60801.94903.json